sensor_id;sensor_type;location;lat;lon;timestamp;P1;durP1;ratioP1;P2;durP2;ratioP2
39094;SDS011;24840;47.508;19.376;2023-02-11T00:01:32;46.60;;;26.70;;
39094;SDS011;24840;47.508;19.376;2023-02-11T00:03:59;40.57;;;24.27;;
39094;SDS011;24840;47.508;19.376;2023-02-11T00:06:26;40.27;;;24.57;;
39094;SDS011;24840;47.508;19.376;2023-02-11T00:08:54;41.07;;;24.33;;
39094;SDS011;24840;47.508;19.376;2023-02-11T00:11:21;40.87;;;23.97;;
39094;SDS011;24840;47.508;19.376;2023-02-11T00:13:49;41.17;;;24.43;;
39094;SDS011;24840;47.508;19.376;2023-02-11T00:16:17;41.00;;;23.67;;
39094;SDS011;24840;47.508;19.376;2023-02-11T00:18:44;43.20;;;25.00;;
39094;SDS011;24840;47.508;19.376;2023-02-11T00:21:12;40.43;;;24.20;;
39094;SDS011;24840;47.508;19.376;2023-02-11T00:23:42;44.78;;;25.52;;
39094;SDS011;24840;47.508;19.376;2023-02-11T00:26:12;46.27;;;25.50;;
39094;SDS011;24840;47.508;19.376;2023-02-11T00:28:43;44.20;;;25.50;;
39094;SDS011;24840;47.508;19.376;2023-02-11T00:31:09;41.93;;;23.97;;
39094;SDS011;24840;47.508;19.376;2023-02-11T00:33:35;48.00;;;24.30;;
39094;SDS011;24840;47.508;19.376;2023-02-11T00:36:09;42.83;;;24.93;;
39094;SDS011;24840;47.508;19.376;2023-02-11T00:38:41;44.93;;;24.47;;
39094;SDS011;24840;47.508;19.376;2023-02-11T00:41:10;43.93;;;27.20;;
39094;SDS011;24840;47.508;19.376;2023-02-11T00:43:37;44.37;;;26.60;;
39094;SDS011;24840;47.508;19.376;2023-02-11T00:46:04;41.20;;;25.20;;
39094;SDS011;24840;47.508;19.376;2023-02-11T00:48:30;44.47;;;25.67;;
39094;SDS011;24840;47.508;19.376;2023-02-11T00:50:57;46.47;;;26.27;;
39094;SDS011;24840;47.508;19.376;2023-02-11T00:53:24;40.33;;;24.07;;
39094;SDS011;24840;47.508;19.376;2023-02-11T00:55:50;41.70;;;25.37;;
39094;SDS011;24840;47.508;19.376;2023-02-11T00:58:16;43.60;;;27.13;;
39094;SDS011;24840;47.508;19.376;2023-02-11T01:00:41;41.30;;;25.40;;
39094;SDS011;24840;47.508;19.376;2023-02-11T01:03:07;45.47;;;25.60;;
39094;SDS011;24840;47.508;19.376;2023-02-11T01:05:33;48.40;;;26.20;;
39094;SDS011;24840;47.508;19.376;2023-02-11T01:07:59;49.30;;;27.30;;
39094;SDS011;24840;47.508;19.376;2023-02-11T01:10:25;41.47;;;24.43;;
39094;SDS011;24840;47.508;19.376;2023-02-11T01:12:51;44.07;;;25.97;;
39094;SDS011;24840;47.508;19.376;2023-02-11T01:15:17;47.17;;;26.80;;
39094;SDS011;24840;47.508;19.376;2023-02-11T01:17:43;44.37;;;26.80;;
39094;SDS011;24840;47.508;19.376;2023-02-11T01:20:14;41.07;;;25.43;;
39094;SDS011;24840;47.508;19.376;2023-02-11T01:22:43;42.50;;;26.17;;
39094;SDS011;24840;47.508;19.376;2023-02-11T01:25:09;40.10;;;25.30;;
39094;SDS011;24840;47.508;19.376;2023-02-11T01:27:35;38.53;;;24.00;;
39094;SDS011;24840;47.508;19.376;2023-02-11T01:30:01;45.10;;;25.57;;
39094;SDS011;24840;47.508;19.376;2023-02-11T01:32:28;42.47;;;26.73;;
39094;SDS011;24840;47.508;19.376;2023-02-11T01:34:54;47.33;;;25.53;;
39094;SDS011;24840;47.508;19.376;2023-02-11T01:37:20;42.53;;;23.20;;
39094;SDS011;24840;47.508;19.376;2023-02-11T01:39:46;45.07;;;26.70;;
39094;SDS011;24840;47.508;19.376;2023-02-11T01:42:15;45.57;;;26.50;;
39094;SDS011;24840;47.508;19.376;2023-02-11T01:44:42;43.43;;;26.10;;
39094;SDS011;24840;47.508;19.376;2023-02-11T01:47:08;47.00;;;25.53;;
39094;SDS011;24840;47.508;19.376;2023-02-11T01:49:37;42.90;;;26.73;;
39094;SDS011;24840;47.508;19.376;2023-02-11T01:52:17;43.33;;;26.50;;
39094;SDS011;24840;47.508;19.376;2023-02-11T01:55:12;48.33;;;27.23;;
39094;SDS011;24840;47.508;19.376;2023-02-11T01:57:58;45.53;;;26.63;;
39094;SDS011;24840;47.508;19.376;2023-02-11T02:00:29;44.87;;;26.40;;
39094;SDS011;24840;47.508;19.376;2023-02-11T02:03:01;45.50;;;26.93;;
39094;SDS011;24840;47.508;19.376;2023-02-11T02:05:41;44.30;;;26.70;;
39094;SDS011;24840;47.508;19.376;2023-02-11T02:10:47;46.90;;;27.07;;
39094;SDS011;24840;47.508;19.376;2023-02-11T02:13:18;44.63;;;26.93;;
39094;SDS011;24840;47.508;19.376;2023-02-11T02:15:53;44.30;;;26.10;;
39094;SDS011;24840;47.508;19.376;2023-02-11T02:27:02;47.53;;;26.97;;
39094;SDS011;24840;47.508;19.376;2023-02-11T02:35:12;45.97;;;27.17;;
39094;SDS011;24840;47.508;19.376;2023-02-11T02:37:48;43.07;;;25.37;;
39094;SDS011;24840;47.508;19.376;2023-02-11T02:40:24;48.67;;;28.80;;
39094;SDS011;24840;47.508;19.376;2023-02-11T02:42:55;46.17;;;26.00;;
39094;SDS011;24840;47.508;19.376;2023-02-11T02:45:21;49.57;;;27.73;;
39094;SDS011;24840;47.508;19.376;2023-02-11T02:47:47;48.70;;;27.97;;
39094;SDS011;24840;47.508;19.376;2023-02-11T02:50:13;46.07;;;28.50;;
39094;SDS011;24840;47.508;19.376;2023-02-11T02:55:31;48.85;;;27.55;;
39094;SDS011;24840;47.508;19.376;2023-02-11T03:06:12;51.80;;;28.90;;
39094;SDS011;24840;47.508;19.376;2023-02-11T03:08:50;41.57;;;25.47;;
39094;SDS011;24840;47.508;19.376;2023-02-11T03:11:30;45.65;;;27.08;;
39094;SDS011;24840;47.508;19.376;2023-02-11T03:13:56;46.50;;;26.83;;
39094;SDS011;24840;47.508;19.376;2023-02-11T03:16:27;50.97;;;28.43;;
39094;SDS011;24840;47.508;19.376;2023-02-11T03:19:05;50.93;;;30.23;;
39094;SDS011;24840;47.508;19.376;2023-02-11T03:21:39;52.17;;;29.43;;
39094;SDS011;24840;47.508;19.376;2023-02-11T03:24:12;44.97;;;27.17;;
39094;SDS011;24840;47.508;19.376;2023-02-11T03:26:53;43.83;;;26.00;;
39094;SDS011;24840;47.508;19.376;2023-02-11T03:29:30;47.27;;;28.67;;
39094;SDS011;24840;47.508;19.376;2023-02-11T03:37:20;45.50;;;26.40;;
39094;SDS011;24840;47.508;19.376;2023-02-11T03:40:07;46.80;;;27.20;;
39094;SDS011;24840;47.508;19.376;2023-02-11T03:42:42;50.00;;;26.13;;
39094;SDS011;24840;47.508;19.376;2023-02-11T03:45:21;44.57;;;26.60;;
39094;SDS011;24840;47.508;19.376;2023-02-11T03:47:53;51.27;;;29.57;;
39094;SDS011;24840;47.508;19.376;2023-02-11T03:50:22;43.70;;;26.20;;
39094;SDS011;24840;47.508;19.376;2023-02-11T03:52:50;47.47;;;27.07;;
39094;SDS011;24840;47.508;19.376;2023-02-11T03:55:16;44.13;;;26.07;;
39094;SDS011;24840;47.508;19.376;2023-02-11T03:57:44;45.70;;;26.57;;
39094;SDS011;24840;47.508;19.376;2023-02-11T04:00:10;49.07;;;27.30;;
39094;SDS011;24840;47.508;19.376;2023-02-11T04:02:37;46.50;;;26.67;;
39094;SDS011;24840;47.508;19.376;2023-02-11T04:05:04;45.30;;;26.17;;
39094;SDS011;24840;47.508;19.376;2023-02-11T04:07:31;48.73;;;25.30;;
39094;SDS011;24840;47.508;19.376;2023-02-11T04:09:58;43.47;;;27.00;;
39094;SDS011;24840;47.508;19.376;2023-02-11T04:12:24;45.60;;;26.13;;
39094;SDS011;24840;47.508;19.376;2023-02-11T04:14:50;46.77;;;28.10;;
39094;SDS011;24840;47.508;19.376;2023-02-11T04:17:16;49.10;;;29.20;;
39094;SDS011;24840;47.508;19.376;2023-02-11T04:19:42;41.63;;;26.07;;
39094;SDS011;24840;47.508;19.376;2023-02-11T04:22:08;45.03;;;27.37;;
39094;SDS011;24840;47.508;19.376;2023-02-11T04:24:34;47.97;;;26.87;;
39094;SDS011;24840;47.508;19.376;2023-02-11T04:27:00;45.07;;;27.63;;
39094;SDS011;24840;47.508;19.376;2023-02-11T04:29:26;43.03;;;26.67;;
39094;SDS011;24840;47.508;19.376;2023-02-11T04:31:52;38.50;;;24.47;;
39094;SDS011;24840;47.508;19.376;2023-02-11T04:34:19;44.20;;;27.60;;
39094;SDS011;24840;47.508;19.376;2023-02-11T04:36:46;47.93;;;26.50;;
39094;SDS011;24840;47.508;19.376;2023-02-11T04:39:11;47.67;;;27.40;;
39094;SDS011;24840;47.508;19.376;2023-02-11T04:41:37;47.97;;;25.13;;
39094;SDS011;24840;47.508;19.376;2023-02-11T04:44:03;52.40;;;28.63;;
39094;SDS011;24840;47.508;19.376;2023-02-11T04:46:29;39.13;;;24.93;;
39094;SDS011;24840;47.508;19.376;2023-02-11T04:48:55;46.13;;;26.43;;
39094;SDS011;24840;47.508;19.376;2023-02-11T04:51:21;49.57;;;27.57;;
39094;SDS011;24840;47.508;19.376;2023-02-11T04:53:47;40.60;;;25.53;;
39094;SDS011;24840;47.508;19.376;2023-02-11T04:56:13;41.93;;;25.77;;
39094;SDS011;24840;47.508;19.376;2023-02-11T04:58:39;51.63;;;28.80;;
39094;SDS011;24840;47.508;19.376;2023-02-11T05:01:12;37.50;;;22.00;;
39094;SDS011;24840;47.508;19.376;2023-02-11T05:03:39;41.73;;;26.90;;
39094;SDS011;24840;47.508;19.376;2023-02-11T05:06:06;47.87;;;26.53;;
39094;SDS011;24840;47.508;19.376;2023-02-11T05:08:33;42.33;;;24.40;;
39094;SDS011;24840;47.508;19.376;2023-02-11T05:10:59;48.90;;;26.93;;
39094;SDS011;24840;47.508;19.376;2023-02-11T05:13:26;35.97;;;25.47;;
39094;SDS011;24840;47.508;19.376;2023-02-11T05:15:52;44.57;;;27.50;;
39094;SDS011;24840;47.508;19.376;2023-02-11T05:18:18;50.63;;;26.23;;
39094;SDS011;24840;47.508;19.376;2023-02-11T05:20:44;44.40;;;26.23;;
39094;SDS011;24840;47.508;19.376;2023-02-11T05:23:10;51.47;;;26.67;;
39094;SDS011;24840;47.508;19.376;2023-02-11T05:25:36;43.57;;;27.37;;
39094;SDS011;24840;47.508;19.376;2023-02-11T05:28:02;44.73;;;27.33;;
39094;SDS011;24840;47.508;19.376;2023-02-11T05:30:29;45.47;;;25.13;;
39094;SDS011;24840;47.508;19.376;2023-02-11T05:32:55;47.33;;;27.67;;
39094;SDS011;24840;47.508;19.376;2023-02-11T05:35:21;40.63;;;26.33;;
39094;SDS011;24840;47.508;19.376;2023-02-11T05:37:47;52.20;;;25.27;;
39094;SDS011;24840;47.508;19.376;2023-02-11T05:40:12;41.57;;;25.03;;
39094;SDS011;24840;47.508;19.376;2023-02-11T05:42:38;41.67;;;27.27;;
39094;SDS011;24840;47.508;19.376;2023-02-11T05:45:04;42.90;;;26.33;;
39094;SDS011;24840;47.508;19.376;2023-02-11T05:47:30;47.00;;;26.87;;
39094;SDS011;24840;47.508;19.376;2023-02-11T05:49:56;53.17;;;28.07;;
39094;SDS011;24840;47.508;19.376;2023-02-11T05:52:22;41.57;;;25.40;;
39094;SDS011;24840;47.508;19.376;2023-02-11T05:54:48;41.67;;;24.70;;
39094;SDS011;24840;47.508;19.376;2023-02-11T05:57:14;45.03;;;25.37;;
39094;SDS011;24840;47.508;19.376;2023-02-11T05:59:40;48.07;;;26.73;;
39094;SDS011;24840;47.508;19.376;2023-02-11T06:02:06;44.43;;;26.57;;
39094;SDS011;24840;47.508;19.376;2023-02-11T06:04:33;47.13;;;27.20;;
39094;SDS011;24840;47.508;19.376;2023-02-11T06:06:59;47.53;;;26.20;;
39094;SDS011;24840;47.508;19.376;2023-02-11T06:09:25;51.20;;;26.23;;
39094;SDS011;24840;47.508;19.376;2023-02-11T06:11:51;44.87;;;25.90;;
39094;SDS011;24840;47.508;19.376;2023-02-11T06:14:17;45.67;;;25.40;;
39094;SDS011;24840;47.508;19.376;2023-02-11T06:16:43;43.67;;;25.50;;
39094;SDS011;24840;47.508;19.376;2023-02-11T06:19:09;45.87;;;25.80;;
39094;SDS011;24840;47.508;19.376;2023-02-11T06:21:36;46.00;;;24.73;;
39094;SDS011;24840;47.508;19.376;2023-02-11T06:24:02;45.37;;;27.43;;
39094;SDS011;24840;47.508;19.376;2023-02-11T06:26:29;48.47;;;26.30;;
39094;SDS011;24840;47.508;19.376;2023-02-11T06:28:55;44.47;;;26.07;;
39094;SDS011;24840;47.508;19.376;2023-02-11T06:31:23;45.43;;;26.53;;
39094;SDS011;24840;47.508;19.376;2023-02-11T06:33:49;47.27;;;28.20;;
39094;SDS011;24840;47.508;19.376;2023-02-11T06:36:16;44.53;;;27.27;;
39094;SDS011;24840;47.508;19.376;2023-02-11T06:38:44;44.37;;;25.53;;
39094;SDS011;24840;47.508;19.376;2023-02-11T06:41:11;45.13;;;27.83;;
39094;SDS011;24840;47.508;19.376;2023-02-11T06:43:38;41.20;;;24.33;;
39094;SDS011;24840;47.508;19.376;2023-02-11T06:46:04;48.53;;;27.47;;
39094;SDS011;24840;47.508;19.376;2023-02-11T06:48:31;42.93;;;25.23;;
39094;SDS011;24840;47.508;19.376;2023-02-11T06:51:00;45.07;;;26.57;;
39094;SDS011;24840;47.508;19.376;2023-02-11T06:53:30;45.20;;;26.83;;
39094;SDS011;24840;47.508;19.376;2023-02-11T06:56:02;47.47;;;26.27;;
39094;SDS011;24840;47.508;19.376;2023-02-11T06:58:30;45.77;;;26.13;;
39094;SDS011;24840;47.508;19.376;2023-02-11T07:00:56;52.83;;;25.27;;
39094;SDS011;24840;47.508;19.376;2023-02-11T07:03:22;43.97;;;25.37;;
39094;SDS011;24840;47.508;19.376;2023-02-11T07:05:48;47.23;;;26.20;;
39094;SDS011;24840;47.508;19.376;2023-02-11T07:08:13;44.77;;;27.33;;
39094;SDS011;24840;47.508;19.376;2023-02-11T07:10:39;45.03;;;27.30;;
39094;SDS011;24840;47.508;19.376;2023-02-11T07:13:05;49.70;;;29.60;;
39094;SDS011;24840;47.508;19.376;2023-02-11T07:15:31;45.80;;;28.07;;
39094;SDS011;24840;47.508;19.376;2023-02-11T07:17:57;49.20;;;26.20;;
39094;SDS011;24840;47.508;19.376;2023-02-11T07:20:23;43.90;;;26.20;;
39094;SDS011;24840;47.508;19.376;2023-02-11T07:22:50;50.87;;;26.80;;
39094;SDS011;24840;47.508;19.376;2023-02-11T07:25:15;47.33;;;27.20;;
39094;SDS011;24840;47.508;19.376;2023-02-11T07:27:41;48.37;;;27.60;;
39094;SDS011;24840;47.508;19.376;2023-02-11T07:30:07;48.40;;;27.33;;
39094;SDS011;24840;47.508;19.376;2023-02-11T07:32:34;41.70;;;25.93;;
39094;SDS011;24840;47.508;19.376;2023-02-11T07:34:59;60.57;;;33.40;;
39094;SDS011;24840;47.508;19.376;2023-02-11T07:37:25;89.60;;;50.70;;
39094;SDS011;24840;47.508;19.376;2023-02-11T07:39:52;60.47;;;38.13;;
39094;SDS011;24840;47.508;19.376;2023-02-11T07:42:17;60.10;;;35.53;;
39094;SDS011;24840;47.508;19.376;2023-02-11T07:44:43;62.90;;;35.20;;
39094;SDS011;24840;47.508;19.376;2023-02-11T07:47:10;51.70;;;31.23;;
39094;SDS011;24840;47.508;19.376;2023-02-11T07:49:35;59.47;;;35.80;;
39094;SDS011;24840;47.508;19.376;2023-02-11T07:52:01;78.10;;;43.93;;
39094;SDS011;24840;47.508;19.376;2023-02-11T07:54:27;72.30;;;44.30;;
39094;SDS011;24840;47.508;19.376;2023-02-11T07:56:52;79.47;;;45.10;;
39094;SDS011;24840;47.508;19.376;2023-02-11T07:59:18;77.60;;;46.57;;
39094;SDS011;24840;47.508;19.376;2023-02-11T08:01:44;83.63;;;45.33;;
39094;SDS011;24840;47.508;19.376;2023-02-11T08:04:10;81.30;;;48.47;;
39094;SDS011;24840;47.508;19.376;2023-02-11T08:06:38;79.23;;;48.40;;
39094;SDS011;24840;47.508;19.376;2023-02-11T08:09:07;74.57;;;42.40;;
39094;SDS011;24840;47.508;19.376;2023-02-11T08:11:35;72.43;;;44.83;;
39094;SDS011;24840;47.508;19.376;2023-02-11T08:14:01;69.93;;;42.67;;
39094;SDS011;24840;47.508;19.376;2023-02-11T08:16:28;78.43;;;43.70;;
39094;SDS011;24840;47.508;19.376;2023-02-11T08:18:56;70.77;;;42.53;;
39094;SDS011;24840;47.508;19.376;2023-02-11T08:21:23;72.30;;;40.37;;
39094;SDS011;24840;47.508;19.376;2023-02-11T08:23:50;83.90;;;44.83;;
39094;SDS011;24840;47.508;19.376;2023-02-11T08:26:17;65.30;;;38.87;;
39094;SDS011;24840;47.508;19.376;2023-02-11T08:28:45;69.50;;;42.47;;
39094;SDS011;24840;47.508;19.376;2023-02-11T08:31:16;66.23;;;41.00;;
39094;SDS011;24840;47.508;19.376;2023-02-11T08:33:44;75.65;;;40.38;;
39094;SDS011;24840;47.508;19.376;2023-02-11T08:36:11;66.20;;;42.23;;
39094;SDS011;24840;47.508;19.376;2023-02-11T08:38:42;66.63;;;39.63;;
39094;SDS011;24840;47.508;19.376;2023-02-11T08:41:09;67.03;;;40.23;;
39094;SDS011;24840;47.508;19.376;2023-02-11T08:43:35;61.57;;;39.20;;
39094;SDS011;24840;47.508;19.376;2023-02-11T08:46:06;68.10;;;42.10;;
39094;SDS011;24840;47.508;19.376;2023-02-11T08:48:32;63.13;;;39.77;;
39094;SDS011;24840;47.508;19.376;2023-02-11T08:50:58;78.77;;;43.20;;
39094;SDS011;24840;47.508;19.376;2023-02-11T08:53:24;70.50;;;40.33;;
39094;SDS011;24840;47.508;19.376;2023-02-11T08:55:51;70.33;;;43.87;;
39094;SDS011;24840;47.508;19.376;2023-02-11T08:58:18;69.57;;;44.37;;
39094;SDS011;24840;47.508;19.376;2023-02-11T09:00:45;67.63;;;42.23;;
39094;SDS011;24840;47.508;19.376;2023-02-11T09:03:12;71.33;;;41.90;;
39094;SDS011;24840;47.508;19.376;2023-02-11T09:05:43;60.53;;;38.23;;
39094;SDS011;24840;47.508;19.376;2023-02-11T09:08:09;66.63;;;41.30;;
39094;SDS011;24840;47.508;19.376;2023-02-11T09:10:35;72.50;;;42.33;;
39094;SDS011;24840;47.508;19.376;2023-02-11T09:13:01;61.67;;;39.53;;
39094;SDS011;24840;47.508;19.376;2023-02-11T09:15:27;68.40;;;40.67;;
39094;SDS011;24840;47.508;19.376;2023-02-11T09:17:53;68.43;;;40.50;;
39094;SDS011;24840;47.508;19.376;2023-02-11T09:20:19;67.27;;;39.70;;
39094;SDS011;24840;47.508;19.376;2023-02-11T09:22:45;67.73;;;41.67;;
39094;SDS011;24840;47.508;19.376;2023-02-11T09:25:11;65.80;;;41.77;;
39094;SDS011;24840;47.508;19.376;2023-02-11T09:27:37;66.40;;;40.97;;
39094;SDS011;24840;47.508;19.376;2023-02-11T09:30:03;69.20;;;43.77;;
39094;SDS011;24840;47.508;19.376;2023-02-11T09:32:29;73.77;;;45.10;;
39094;SDS011;24840;47.508;19.376;2023-02-11T09:34:55;65.10;;;41.83;;
39094;SDS011;24840;47.508;19.376;2023-02-11T09:37:20;65.90;;;39.57;;
39094;SDS011;24840;47.508;19.376;2023-02-11T09:39:46;60.60;;;40.43;;
39094;SDS011;24840;47.508;19.376;2023-02-11T09:45:03;59.33;;;38.67;;
39094;SDS011;24840;47.508;19.376;2023-02-11T09:47:35;61.33;;;38.77;;
39094;SDS011;24840;47.508;19.376;2023-02-11T09:50:13;62.57;;;39.77;;
39094;SDS011;24840;47.508;19.376;2023-02-11T09:55:17;57.50;;;37.53;;
39094;SDS011;24840;47.508;19.376;2023-02-11T09:58:11;54.80;;;35.93;;
39094;SDS011;24840;47.508;19.376;2023-02-11T10:00:45;61.60;;;37.73;;
39094;SDS011;24840;47.508;19.376;2023-02-11T10:20:22;51.33;;;33.87;;
39094;SDS011;24840;47.508;19.376;2023-02-11T10:22:43;56.30;;;35.27;;
39094;SDS011;24840;47.508;19.376;2023-02-11T10:25:17;55.23;;;36.13;;
39094;SDS011;24840;47.508;19.376;2023-02-11T10:27:49;60.93;;;38.90;;
39094;SDS011;24840;47.508;19.376;2023-02-11T10:30:27;60.87;;;37.63;;
39094;SDS011;24840;47.508;19.376;2023-02-11T10:33:10;52.43;;;33.27;;
39094;SDS011;24840;47.508;19.376;2023-02-11T10:35:46;47.77;;;32.83;;
39094;SDS011;24840;47.508;19.376;2023-02-11T10:38:11;50.07;;;34.27;;
39094;SDS011;24840;47.508;19.376;2023-02-11T10:40:37;59.17;;;37.07;;
39094;SDS011;24840;47.508;19.376;2023-02-11T10:43:04;59.67;;;35.83;;
39094;SDS011;24840;47.508;19.376;2023-02-11T10:48:02;55.30;;;34.17;;
39094;SDS011;24840;47.508;19.376;2023-02-11T10:50:33;52.80;;;32.33;;
39094;SDS011;24840;47.508;19.376;2023-02-11T10:53:16;52.57;;;33.27;;
39094;SDS011;24840;47.508;19.376;2023-02-11T10:55:54;48.67;;;30.87;;
39094;SDS011;24840;47.508;19.376;2023-02-11T10:58:28;47.37;;;32.07;;
39094;SDS011;24840;47.508;19.376;2023-02-11T11:00:56;53.17;;;31.50;;
39094;SDS011;24840;47.508;19.376;2023-02-11T11:03:31;43.53;;;30.00;;
39094;SDS011;24840;47.508;19.376;2023-02-11T11:06:04;44.13;;;29.77;;
39094;SDS011;24840;47.508;19.376;2023-02-11T11:09:08;43.77;;;31.27;;
39094;SDS011;24840;47.508;19.376;2023-02-11T11:16:18;47.77;;;31.83;;
39094;SDS011;24840;47.508;19.376;2023-02-11T11:18:50;49.23;;;30.60;;
39094;SDS011;24840;47.508;19.376;2023-02-11T11:21:51;48.20;;;31.47;;
39094;SDS011;24840;47.508;19.376;2023-02-11T11:24:19;51.95;;;32.95;;
39094;SDS011;24840;47.508;19.376;2023-02-11T11:26:48;51.20;;;32.87;;
39094;SDS011;24840;47.508;19.376;2023-02-11T11:29:21;48.10;;;31.97;;
39094;SDS011;24840;47.508;19.376;2023-02-11T11:31:53;41.70;;;29.85;;
39094;SDS011;24840;47.508;19.376;2023-02-11T11:34:32;46.80;;;30.23;;
39094;SDS011;24840;47.508;19.376;2023-02-11T11:37:08;47.47;;;30.80;;
39094;SDS011;24840;47.508;19.376;2023-02-11T11:39:35;43.90;;;32.63;;
39094;SDS011;24840;47.508;19.376;2023-02-11T11:42:02;46.33;;;32.77;;
39094;SDS011;24840;47.508;19.376;2023-02-11T11:52:32;43.60;;;30.40;;
39094;SDS011;24840;47.508;19.376;2023-02-11T11:55:21;44.77;;;29.53;;
39094;SDS011;24840;47.508;19.376;2023-02-11T11:57:52;47.33;;;31.03;;
39094;SDS011;24840;47.508;19.376;2023-02-11T12:00:19;53.60;;;30.53;;
39094;SDS011;24840;47.508;19.376;2023-02-11T12:05:44;45.37;;;29.67;;
39094;SDS011;24840;47.508;19.376;2023-02-11T12:20:01;43.77;;;29.90;;
39094;SDS011;24840;47.508;19.376;2023-02-11T12:25:32;45.60;;;29.60;;
39094;SDS011;24840;47.508;19.376;2023-02-11T12:48:40;45.07;;;28.00;;
39094;SDS011;24840;47.508;19.376;2023-02-11T12:54:18;39.87;;;28.37;;
39094;SDS011;24840;47.508;19.376;2023-02-11T12:59:26;48.10;;;27.10;;
39094;SDS011;24840;47.508;19.376;2023-02-11T13:01:56;39.53;;;25.90;;
39094;SDS011;24840;47.508;19.376;2023-02-11T13:04:28;40.73;;;25.33;;
39094;SDS011;24840;47.508;19.376;2023-02-11T13:07:14;37.87;;;26.27;;
39094;SDS011;24840;47.508;19.376;2023-02-11T13:10:00;38.10;;;23.67;;
39094;SDS011;24840;47.508;19.376;2023-02-11T13:12:47;41.20;;;26.33;;
39094;SDS011;24840;47.508;19.376;2023-02-11T13:15:33;38.03;;;25.40;;
39094;SDS011;24840;47.508;19.376;2023-02-11T13:18:01;39.67;;;26.90;;
39094;SDS011;24840;47.508;19.376;2023-02-11T13:21:00;39.30;;;24.40;;
39094;SDS011;24840;47.508;19.376;2023-02-11T13:28:56;38.63;;;23.70;;
39094;SDS011;24840;47.508;19.376;2023-02-11T13:31:39;31.07;;;19.97;;
39094;SDS011;24840;47.508;19.376;2023-02-11T13:34:21;33.00;;;20.77;;
39094;SDS011;24840;47.508;19.376;2023-02-11T13:36:55;30.33;;;19.37;;
39094;SDS011;24840;47.508;19.376;2023-02-11T13:39:22;31.87;;;20.23;;
39094;SDS011;24840;47.508;19.376;2023-02-11T13:41:48;32.20;;;20.90;;
39094;SDS011;24840;47.508;19.376;2023-02-11T13:44:19;26.30;;;17.13;;
39094;SDS011;24840;47.508;19.376;2023-02-11T13:51:56;28.57;;;18.10;;
39094;SDS011;24840;47.508;19.376;2023-02-11T13:54:25;28.47;;;16.67;;
39094;SDS011;24840;47.508;19.376;2023-02-11T13:59:53;25.30;;;15.73;;
39094;SDS011;24840;47.508;19.376;2023-02-11T14:05:23;26.93;;;16.97;;
39094;SDS011;24840;47.508;19.376;2023-02-11T14:10:58;24.67;;;16.83;;
39094;SDS011;24840;47.508;19.376;2023-02-11T14:16:18;22.83;;;15.13;;
39094;SDS011;24840;47.508;19.376;2023-02-11T14:23:52;27.43;;;16.37;;
39094;SDS011;24840;47.508;19.376;2023-02-11T14:26:49;24.03;;;15.40;;
39094;SDS011;24840;47.508;19.376;2023-02-11T14:29:41;26.90;;;15.87;;
39094;SDS011;24840;47.508;19.376;2023-02-11T14:40:30;26.47;;;15.20;;
39094;SDS011;24840;47.508;19.376;2023-02-11T14:46:13;24.10;;;15.47;;
39094;SDS011;24840;47.508;19.376;2023-02-11T14:48:43;29.53;;;15.63;;
39094;SDS011;24840;47.508;19.376;2023-02-11T14:53:55;24.03;;;16.43;;
39094;SDS011;24840;47.508;19.376;2023-02-11T14:56:26;27.80;;;16.83;;
39094;SDS011;24840;47.508;19.376;2023-02-11T14:58:55;24.57;;;16.03;;
39094;SDS011;24840;47.508;19.376;2023-02-11T15:01:32;26.73;;;16.70;;
39094;SDS011;24840;47.508;19.376;2023-02-11T15:04:00;29.67;;;16.40;;
39094;SDS011;24840;47.508;19.376;2023-02-11T15:09:00;26.00;;;16.43;;
39094;SDS011;24840;47.508;19.376;2023-02-11T15:11:28;26.90;;;16.47;;
39094;SDS011;24840;47.508;19.376;2023-02-11T15:13:58;26.23;;;15.20;;
39094;SDS011;24840;47.508;19.376;2023-02-11T15:16:32;27.47;;;15.67;;
39094;SDS011;24840;47.508;19.376;2023-02-11T15:19:03;30.23;;;17.70;;
39094;SDS011;24840;47.508;19.376;2023-02-11T15:21:32;25.70;;;16.83;;
39094;SDS011;24840;47.508;19.376;2023-02-11T15:24:03;25.90;;;15.63;;
39094;SDS011;24840;47.508;19.376;2023-02-11T15:26:44;28.70;;;16.60;;
39094;SDS011;24840;47.508;19.376;2023-02-11T15:29:19;27.50;;;17.03;;
39094;SDS011;24840;47.508;19.376;2023-02-11T15:32:01;29.37;;;17.53;;
39094;SDS011;24840;47.508;19.376;2023-02-11T15:34:32;29.10;;;16.52;;
39094;SDS011;24840;47.508;19.376;2023-02-11T15:36:58;28.47;;;16.63;;
39094;SDS011;24840;47.508;19.376;2023-02-11T15:44:46;28.50;;;17.67;;
39094;SDS011;24840;47.508;19.376;2023-02-11T15:47:17;26.33;;;16.17;;
39094;SDS011;24840;47.508;19.376;2023-02-11T15:49:45;27.75;;;16.73;;
39094;SDS011;24840;47.508;19.376;2023-02-11T15:52:20;30.07;;;17.77;;
39094;SDS011;24840;47.508;19.376;2023-02-11T15:54:48;27.53;;;17.93;;
39094;SDS011;24840;47.508;19.376;2023-02-11T15:57:15;32.40;;;18.20;;
39094;SDS011;24840;47.508;19.376;2023-02-11T15:59:45;30.10;;;18.60;;
39094;SDS011;24840;47.508;19.376;2023-02-11T16:07:58;32.60;;;17.40;;
39094;SDS011;24840;47.508;19.376;2023-02-11T16:10:29;28.93;;;17.60;;
39094;SDS011;24840;47.508;19.376;2023-02-11T16:15:44;28.00;;;17.60;;
39094;SDS011;24840;47.508;19.376;2023-02-11T16:20:56;31.23;;;18.67;;
39094;SDS011;24840;47.508;19.376;2023-02-11T16:23:27;40.10;;;18.13;;
39094;SDS011;24840;47.508;19.376;2023-02-11T16:29:14;43.67;;;20.60;;
39094;SDS011;24840;47.508;19.376;2023-02-11T16:31:42;49.83;;;20.23;;
39094;SDS011;24840;47.508;19.376;2023-02-11T16:34:14;40.73;;;20.47;;
39094;SDS011;24840;47.508;19.376;2023-02-11T16:36:42;39.25;;;19.75;;
39094;SDS011;24840;47.508;19.376;2023-02-11T16:39:09;46.77;;;21.53;;
39094;SDS011;24840;47.508;19.376;2023-02-11T16:41:35;41.43;;;23.43;;
39094;SDS011;24840;47.508;19.376;2023-02-11T16:44:01;38.07;;;19.90;;
39094;SDS011;24840;47.508;19.376;2023-02-11T16:46:26;47.10;;;26.00;;
39094;SDS011;24840;47.508;19.376;2023-02-11T16:48:53;53.90;;;30.87;;
39094;SDS011;24840;47.508;19.376;2023-02-11T16:51:20;50.77;;;26.97;;
39094;SDS011;24840;47.508;19.376;2023-02-11T16:53:46;54.30;;;33.83;;
39094;SDS011;24840;47.508;19.376;2023-02-11T16:56:15;71.53;;;37.60;;
39094;SDS011;24840;47.508;19.376;2023-02-11T16:58:42;52.90;;;31.73;;
39094;SDS011;24840;47.508;19.376;2023-02-11T17:01:08;48.77;;;29.30;;
39094;SDS011;24840;47.508;19.376;2023-02-11T17:03:35;43.07;;;27.30;;
39094;SDS011;24840;47.508;19.376;2023-02-11T17:06:05;47.77;;;27.03;;
39094;SDS011;24840;47.508;19.376;2023-02-11T17:08:33;40.87;;;24.93;;
39094;SDS011;24840;47.508;19.376;2023-02-11T17:11:00;40.00;;;24.83;;
39094;SDS011;24840;47.508;19.376;2023-02-11T17:13:26;38.83;;;24.70;;
39094;SDS011;24840;47.508;19.376;2023-02-11T17:15:52;40.70;;;24.03;;
39094;SDS011;24840;47.508;19.376;2023-02-11T17:18:18;45.63;;;26.57;;
39094;SDS011;24840;47.508;19.376;2023-02-11T17:20:43;47.43;;;24.43;;